sensor_id;sensor_type;location;lat;lon;timestamp;P1;durP1;ratioP1;P2;durP2;ratioP2
69912;SDS011;57198;52.082;5.108;2024-02-14T00:01:20;7.23;;;5.37;;
69912;SDS011;57198;52.082;5.108;2024-02-14T00:03:48;8.32;;;6.80;;
69912;SDS011;57198;52.082;5.108;2024-02-14T00:06:16;8.13;;;7.32;;
69912;SDS011;57198;52.082;5.108;2024-02-14T00:08:43;7.72;;;7.03;;
69912;SDS011;57198;52.082;5.108;2024-02-14T00:11:11;8.18;;;7.47;;
69912;SDS011;57198;52.082;5.108;2024-02-14T00:13:40;8.63;;;6.20;;
69912;SDS011;57198;52.082;5.108;2024-02-14T00:16:07;8.77;;;7.97;;
69912;SDS011;57198;52.082;5.108;2024-02-14T00:18:37;10.02;;;7.65;;
69912;SDS011;57198;52.082;5.108;2024-02-14T00:21:10;9.27;;;8.38;;
69912;SDS011;57198;52.082;5.108;2024-02-14T00:23:37;9.52;;;8.70;;
69912;SDS011;57198;52.082;5.108;2024-02-14T00:26:04;8.20;;;7.40;;
69912;SDS011;57198;52.082;5.108;2024-02-14T00:28:32;10.23;;;9.10;;
69912;SDS011;57198;52.082;5.108;2024-02-14T00:31:00;9.00;;;7.13;;
69912;SDS011;57198;52.082;5.108;2024-02-14T00:33:27;10.07;;;9.07;;
69912;SDS011;57198;52.082;5.108;2024-02-14T00:35:55;7.78;;;7.03;;
69912;SDS011;57198;52.082;5.108;2024-02-14T00:38:22;9.90;;;8.13;;
69912;SDS011;57198;52.082;5.108;2024-02-14T00:40:50;11.40;;;9.70;;
69912;SDS011;57198;52.082;5.108;2024-02-14T00:43:17;11.98;;;10.02;;
69912;SDS011;57198;52.082;5.108;2024-02-14T00:45:45;7.28;;;6.63;;
69912;SDS011;57198;52.082;5.108;2024-02-14T00:48:14;9.70;;;7.95;;
69912;SDS011;57198;52.082;5.108;2024-02-14T00:50:41;8.10;;;7.43;;
69912;SDS011;57198;52.082;5.108;2024-02-14T00:53:09;10.52;;;8.95;;
69912;SDS011;57198;52.082;5.108;2024-02-14T00:55:36;14.27;;;10.18;;
69912;SDS011;57198;52.082;5.108;2024-02-14T00:58:03;11.50;;;9.80;;
69912;SDS011;57198;52.082;5.108;2024-02-14T01:00:31;8.27;;;6.63;;
69912;SDS011;57198;52.082;5.108;2024-02-14T01:03:01;12.10;;;8.90;;
69912;SDS011;57198;52.082;5.108;2024-02-14T01:05:29;10.20;;;9.20;;
69912;SDS011;57198;52.082;5.108;2024-02-14T01:07:56;7.18;;;6.57;;
69912;SDS011;57198;52.082;5.108;2024-02-14T01:10:24;11.27;;;9.30;;
69912;SDS011;57198;52.082;5.108;2024-02-14T01:12:51;9.38;;;8.40;;
69912;SDS011;57198;52.082;5.108;2024-02-14T01:15:19;7.43;;;6.73;;
69912;SDS011;57198;52.082;5.108;2024-02-14T01:17:48;10.45;;;8.88;;
69912;SDS011;57198;52.082;5.108;2024-02-14T01:20:16;9.68;;;8.68;;
69912;SDS011;57198;52.082;5.108;2024-02-14T01:22:44;10.38;;;9.32;;
69912;SDS011;57198;52.082;5.108;2024-02-14T01:25:12;13.27;;;10.52;;
69912;SDS011;57198;52.082;5.108;2024-02-14T01:27:40;14.10;;;9.00;;
69912;SDS011;57198;52.082;5.108;2024-02-14T01:30:08;10.02;;;8.95;;
69912;SDS011;57198;52.082;5.108;2024-02-14T01:32:36;11.10;;;9.13;;
69912;SDS011;57198;52.082;5.108;2024-02-14T01:35:04;9.63;;;8.60;;
69912;SDS011;57198;52.082;5.108;2024-02-14T01:37:31;12.70;;;9.90;;
69912;SDS011;57198;52.082;5.108;2024-02-14T01:39:59;12.13;;;10.00;;
69912;SDS011;57198;52.082;5.108;2024-02-14T01:42:26;10.88;;;9.60;;
69912;SDS011;57198;52.082;5.108;2024-02-14T01:44:54;9.98;;;8.88;;
69912;SDS011;57198;52.082;5.108;2024-02-14T01:47:21;12.60;;;9.82;;
69912;SDS011;57198;52.082;5.108;2024-02-14T01:49:50;11.88;;;10.60;;
69912;SDS011;57198;52.082;5.108;2024-02-14T01:52:17;7.97;;;6.90;;
69912;SDS011;57198;52.082;5.108;2024-02-14T01:54:45;13.65;;;9.88;;
69912;SDS011;57198;52.082;5.108;2024-02-14T01:57:12;9.50;;;8.52;;
69912;SDS011;57198;52.082;5.108;2024-02-14T01:59:39;12.88;;;8.00;;
69912;SDS011;57198;52.082;5.108;2024-02-14T02:02:07;12.30;;;8.90;;
69912;SDS011;57198;52.082;5.108;2024-02-14T02:04:35;10.47;;;8.93;;
69912;SDS011;57198;52.082;5.108;2024-02-14T02:07:03;12.60;;;10.25;;
69912;SDS011;57198;52.082;5.108;2024-02-14T02:09:31;10.20;;;8.23;;
69912;SDS011;57198;52.082;5.108;2024-02-14T02:12:00;10.93;;;9.45;;
69912;SDS011;57198;52.082;5.108;2024-02-14T02:14:27;11.05;;;8.75;;
69912;SDS011;57198;52.082;5.108;2024-02-14T02:16:56;11.63;;;9.93;;
69912;SDS011;57198;52.082;5.108;2024-02-14T02:19:23;10.45;;;9.45;;
69912;SDS011;57198;52.082;5.108;2024-02-14T02:21:51;8.02;;;6.53;;
69912;SDS011;57198;52.082;5.108;2024-02-14T02:24:18;15.70;;;10.70;;
69912;SDS011;57198;52.082;5.108;2024-02-14T02:26:46;8.52;;;7.30;;
69912;SDS011;57198;52.082;5.108;2024-02-14T02:29:14;11.00;;;9.53;;
69912;SDS011;57198;52.082;5.108;2024-02-14T02:31:42;11.88;;;9.60;;
69912;SDS011;57198;52.082;5.108;2024-02-14T02:34:10;7.95;;;7.15;;
69912;SDS011;57198;52.082;5.108;2024-02-14T02:36:38;9.18;;;7.95;;
69912;SDS011;57198;52.082;5.108;2024-02-14T02:39:06;10.73;;;9.20;;
69912;SDS011;57198;52.082;5.108;2024-02-14T02:41:34;10.40;;;9.30;;
69912;SDS011;57198;52.082;5.108;2024-02-14T02:44:01;10.13;;;8.48;;
69912;SDS011;57198;52.082;5.108;2024-02-14T02:46:29;11.30;;;9.48;;
69912;SDS011;57198;52.082;5.108;2024-02-14T02:48:56;12.90;;;10.30;;
69912;SDS011;57198;52.082;5.108;2024-02-14T02:51:25;8.93;;;8.02;;
69912;SDS011;57198;52.082;5.108;2024-02-14T02:53:54;7.83;;;7.03;;
69912;SDS011;57198;52.082;5.108;2024-02-14T02:56:21;9.85;;;8.80;;
69912;SDS011;57198;52.082;5.108;2024-02-14T02:58:54;8.32;;;7.55;;
69912;SDS011;57198;52.082;5.108;2024-02-14T03:01:22;10.48;;;8.77;;
69912;SDS011;57198;52.082;5.108;2024-02-14T03:03:51;8.45;;;7.28;;
69912;SDS011;57198;52.082;5.108;2024-02-14T03:06:18;10.60;;;9.27;;
69912;SDS011;57198;52.082;5.108;2024-02-14T03:08:47;9.85;;;8.90;;
69912;SDS011;57198;52.082;5.108;2024-02-14T03:11:15;12.00;;;8.82;;
69912;SDS011;57198;52.082;5.108;2024-02-14T03:13:42;13.73;;;10.45;;
69912;SDS011;57198;52.082;5.108;2024-02-14T03:16:10;11.82;;;9.40;;
69912;SDS011;57198;52.082;5.108;2024-02-14T03:18:38;15.23;;;9.90;;
69912;SDS011;57198;52.082;5.108;2024-02-14T03:21:05;10.25;;;9.15;;
69912;SDS011;57198;52.082;5.108;2024-02-14T03:23:33;11.80;;;9.50;;
69912;SDS011;57198;52.082;5.108;2024-02-14T03:26:00;11.63;;;8.65;;
69912;SDS011;57198;52.082;5.108;2024-02-14T03:28:28;12.07;;;10.13;;
69912;SDS011;57198;52.082;5.108;2024-02-14T03:30:55;11.67;;;9.03;;
69912;SDS011;57198;52.082;5.108;2024-02-14T03:33:23;15.65;;;8.95;;
69912;SDS011;57198;52.082;5.108;2024-02-14T03:35:51;19.38;;;8.60;;
69912;SDS011;57198;52.082;5.108;2024-02-14T03:38:25;12.10;;;8.73;;
69912;SDS011;57198;52.082;5.108;2024-02-14T03:40:53;16.55;;;9.32;;
69912;SDS011;57198;52.082;5.108;2024-02-14T03:43:21;14.17;;;8.97;;
69912;SDS011;57198;52.082;5.108;2024-02-14T03:45:50;16.63;;;10.73;;
69912;SDS011;57198;52.082;5.108;2024-02-14T03:48:18;13.88;;;8.70;;
69912;SDS011;57198;52.082;5.108;2024-02-14T03:50:46;20.65;;;8.88;;
69912;SDS011;57198;52.082;5.108;2024-02-14T03:53:13;16.83;;;8.93;;
69912;SDS011;57198;52.082;5.108;2024-02-14T03:55:41;15.70;;;7.50;;
69912;SDS011;57198;52.082;5.108;2024-02-14T03:58:08;16.55;;;9.15;;
69912;SDS011;57198;52.082;5.108;2024-02-14T04:00:36;13.27;;;9.13;;
69912;SDS011;57198;52.082;5.108;2024-02-14T04:03:03;14.35;;;9.25;;
69912;SDS011;57198;52.082;5.108;2024-02-14T04:05:31;12.35;;;8.43;;
69912;SDS011;57198;52.082;5.108;2024-02-14T04:07:58;14.10;;;9.70;;
69912;SDS011;57198;52.082;5.108;2024-02-14T04:10:26;17.83;;;7.60;;
69912;SDS011;57198;52.082;5.108;2024-02-14T04:12:53;13.23;;;9.05;;
69912;SDS011;57198;52.082;5.108;2024-02-14T04:15:20;17.17;;;8.88;;
69912;SDS011;57198;52.082;5.108;2024-02-14T04:17:48;19.05;;;9.35;;
69912;SDS011;57198;52.082;5.108;2024-02-14T04:20:15;17.67;;;9.60;;
69912;SDS011;57198;52.082;5.108;2024-02-14T04:22:43;13.30;;;7.85;;
69912;SDS011;57198;52.082;5.108;2024-02-14T04:25:11;15.32;;;9.35;;
69912;SDS011;57198;52.082;5.108;2024-02-14T04:27:38;9.60;;;6.75;;
69912;SDS011;57198;52.082;5.108;2024-02-14T04:30:06;15.15;;;8.77;;
69912;SDS011;57198;52.082;5.108;2024-02-14T04:32:33;16.63;;;9.00;;
69912;SDS011;57198;52.082;5.108;2024-02-14T04:35:01;13.40;;;8.57;;
69912;SDS011;57198;52.082;5.108;2024-02-14T04:37:30;13.77;;;8.93;;
69912;SDS011;57198;52.082;5.108;2024-02-14T04:39:59;11.48;;;7.10;;
69912;SDS011;57198;52.082;5.108;2024-02-14T04:42:26;14.02;;;8.43;;
69912;SDS011;57198;52.082;5.108;2024-02-14T04:44:54;10.47;;;7.93;;
69912;SDS011;57198;52.082;5.108;2024-02-14T04:47:21;16.45;;;9.30;;
69912;SDS011;57198;52.082;5.108;2024-02-14T04:49:49;10.80;;;7.93;;
69912;SDS011;57198;52.082;5.108;2024-02-14T04:52:18;14.63;;;9.32;;
69912;SDS011;57198;52.082;5.108;2024-02-14T04:54:45;14.73;;;8.75;;
69912;SDS011;57198;52.082;5.108;2024-02-14T04:57:12;12.17;;;8.63;;
69912;SDS011;57198;52.082;5.108;2024-02-14T04:59:41;15.77;;;8.23;;
69912;SDS011;57198;52.082;5.108;2024-02-14T05:02:09;15.00;;;8.25;;
69912;SDS011;57198;52.082;5.108;2024-02-14T05:04:37;12.85;;;7.60;;
69912;SDS011;57198;52.082;5.108;2024-02-14T05:07:05;10.52;;;7.85;;
69912;SDS011;57198;52.082;5.108;2024-02-14T05:09:34;12.77;;;8.97;;
69912;SDS011;57198;52.082;5.108;2024-02-14T05:12:02;15.55;;;8.75;;
69912;SDS011;57198;52.082;5.108;2024-02-14T05:14:30;13.98;;;9.05;;
69912;SDS011;57198;52.082;5.108;2024-02-14T05:16:58;12.35;;;7.63;;
69912;SDS011;57198;52.082;5.108;2024-02-14T05:19:28;14.93;;;9.38;;
69912;SDS011;57198;52.082;5.108;2024-02-14T05:21:56;17.17;;;7.67;;
69912;SDS011;57198;52.082;5.108;2024-02-14T05:24:23;15.75;;;8.35;;
69912;SDS011;57198;52.082;5.108;2024-02-14T05:26:53;12.88;;;7.88;;
69912;SDS011;57198;52.082;5.108;2024-02-14T05:29:21;16.10;;;8.38;;
69912;SDS011;57198;52.082;5.108;2024-02-14T05:31:48;13.38;;;9.52;;
69912;SDS011;57198;52.082;5.108;2024-02-14T05:34:18;12.87;;;7.87;;
69912;SDS011;57198;52.082;5.108;2024-02-14T05:36:46;15.00;;;8.75;;
69912;SDS011;57198;52.082;5.108;2024-02-14T05:39:13;10.90;;;8.45;;
69912;SDS011;57198;52.082;5.108;2024-02-14T05:41:42;10.13;;;8.40;;
69912;SDS011;57198;52.082;5.108;2024-02-14T05:44:10;12.35;;;8.57;;
69912;SDS011;57198;52.082;5.108;2024-02-14T05:46:37;13.87;;;9.93;;
69912;SDS011;57198;52.082;5.108;2024-02-14T05:49:04;12.68;;;9.82;;
69912;SDS011;57198;52.082;5.108;2024-02-14T05:51:32;9.18;;;7.97;;
69912;SDS011;57198;52.082;5.108;2024-02-14T05:54:00;12.80;;;9.60;;
69912;SDS011;57198;52.082;5.108;2024-02-14T05:56:27;11.07;;;8.20;;
69912;SDS011;57198;52.082;5.108;2024-02-14T05:58:55;12.33;;;9.53;;
69912;SDS011;57198;52.082;5.108;2024-02-14T06:01:22;15.15;;;8.98;;
69912;SDS011;57198;52.082;5.108;2024-02-14T06:03:50;9.90;;;8.05;;
69912;SDS011;57198;52.082;5.108;2024-02-14T06:06:17;13.15;;;8.45;;
69912;SDS011;57198;52.082;5.108;2024-02-14T06:08:45;9.75;;;8.10;;
69912;SDS011;57198;52.082;5.108;2024-02-14T06:11:12;11.23;;;8.47;;
69912;SDS011;57198;52.082;5.108;2024-02-14T06:13:40;9.20;;;7.78;;
69912;SDS011;57198;52.082;5.108;2024-02-14T06:16:10;9.70;;;8.27;;
69912;SDS011;57198;52.082;5.108;2024-02-14T06:18:38;12.18;;;9.10;;
69912;SDS011;57198;52.082;5.108;2024-02-14T06:21:06;10.98;;;9.77;;
69912;SDS011;57198;52.082;5.108;2024-02-14T06:23:34;9.17;;;7.77;;
69912;SDS011;57198;52.082;5.108;2024-02-14T06:26:03;10.18;;;8.80;;
69912;SDS011;57198;52.082;5.108;2024-02-14T06:28:30;10.13;;;7.78;;
69912;SDS011;57198;52.082;5.108;2024-02-14T06:30:58;10.77;;;9.18;;
69912;SDS011;57198;52.082;5.108;2024-02-14T06:33:27;13.57;;;9.18;;
69912;SDS011;57198;52.082;5.108;2024-02-14T06:35:55;13.60;;;9.23;;
69912;SDS011;57198;52.082;5.108;2024-02-14T06:38:23;10.60;;;8.30;;
69912;SDS011;57198;52.082;5.108;2024-02-14T06:40:50;13.00;;;10.57;;
69912;SDS011;57198;52.082;5.108;2024-02-14T06:43:18;15.77;;;10.95;;
69912;SDS011;57198;52.082;5.108;2024-02-14T06:45:46;11.30;;;9.68;;
69912;SDS011;57198;52.082;5.108;2024-02-14T06:48:13;19.03;;;11.17;;
69912;SDS011;57198;52.082;5.108;2024-02-14T06:50:41;16.25;;;11.25;;
69912;SDS011;57198;52.082;5.108;2024-02-14T06:53:08;19.90;;;10.20;;
69912;SDS011;57198;52.082;5.108;2024-02-14T06:55:36;15.93;;;11.32;;
69912;SDS011;57198;52.082;5.108;2024-02-14T06:58:03;15.98;;;10.40;;
69912;SDS011;57198;52.082;5.108;2024-02-14T07:00:31;19.60;;;10.77;;
69912;SDS011;57198;52.082;5.108;2024-02-14T07:02:59;14.00;;;11.30;;
69912;SDS011;57198;52.082;5.108;2024-02-14T07:05:26;16.35;;;12.00;;
69912;SDS011;57198;52.082;5.108;2024-02-14T07:07:55;17.42;;;10.90;;
69912;SDS011;57198;52.082;5.108;2024-02-14T07:10:23;20.40;;;12.63;;
69912;SDS011;57198;52.082;5.108;2024-02-14T07:12:50;24.07;;;12.10;;
69912;SDS011;57198;52.082;5.108;2024-02-14T07:15:18;17.10;;;12.50;;
69912;SDS011;57198;52.082;5.108;2024-02-14T07:17:46;24.10;;;13.07;;
69912;SDS011;57198;52.082;5.108;2024-02-14T07:20:14;19.50;;;11.55;;
69912;SDS011;57198;52.082;5.108;2024-02-14T07:22:43;15.50;;;12.13;;
69912;SDS011;57198;52.082;5.108;2024-02-14T07:25:14;19.13;;;12.87;;
69912;SDS011;57198;52.082;5.108;2024-02-14T07:27:41;20.92;;;12.05;;
69912;SDS011;57198;52.082;5.108;2024-02-14T07:30:08;12.85;;;10.38;;
69912;SDS011;57198;52.082;5.108;2024-02-14T07:32:36;16.20;;;11.60;;
69912;SDS011;57198;52.082;5.108;2024-02-14T07:35:04;16.63;;;11.68;;
69912;SDS011;57198;52.082;5.108;2024-02-14T07:37:33;16.23;;;12.90;;
69912;SDS011;57198;52.082;5.108;2024-02-14T07:40:00;13.63;;;10.32;;
69912;SDS011;57198;52.082;5.108;2024-02-14T07:42:27;12.32;;;11.07;;
69912;SDS011;57198;52.082;5.108;2024-02-14T07:44:55;11.75;;;8.20;;
69912;SDS011;57198;52.082;5.108;2024-02-14T07:47:23;12.88;;;10.45;;
69912;SDS011;57198;52.082;5.108;2024-02-14T07:49:50;14.20;;;10.00;;
69912;SDS011;57198;52.082;5.108;2024-02-14T07:52:19;13.75;;;9.13;;
69912;SDS011;57198;52.082;5.108;2024-02-14T07:54:51;13.07;;;10.35;;
69912;SDS011;57198;52.082;5.108;2024-02-14T07:57:19;13.80;;;11.50;;
69912;SDS011;57198;52.082;5.108;2024-02-14T07:59:46;13.68;;;11.13;;
69912;SDS011;57198;52.082;5.108;2024-02-14T08:02:13;12.07;;;9.50;;
69912;SDS011;57198;52.082;5.108;2024-02-14T08:04:41;12.30;;;9.52;;
69912;SDS011;57198;52.082;5.108;2024-02-14T08:07:09;13.88;;;10.68;;
69912;SDS011;57198;52.082;5.108;2024-02-14T08:09:37;12.32;;;10.07;;
69912;SDS011;57198;52.082;5.108;2024-02-14T08:12:07;14.32;;;10.90;;
69912;SDS011;57198;52.082;5.108;2024-02-14T08:14:34;11.10;;;9.90;;
69912;SDS011;57198;52.082;5.108;2024-02-14T08:17:03;8.38;;;7.43;;
69912;SDS011;57198;52.082;5.108;2024-02-14T08:19:30;16.27;;;11.38;;
69912;SDS011;57198;52.082;5.108;2024-02-14T08:21:58;12.75;;;9.82;;
69912;SDS011;57198;52.082;5.108;2024-02-14T08:24:27;9.90;;;8.30;;
69912;SDS011;57198;52.082;5.108;2024-02-14T08:26:54;12.47;;;9.33;;
69912;SDS011;57198;52.082;5.108;2024-02-14T08:29:21;12.73;;;8.90;;
69912;SDS011;57198;52.082;5.108;2024-02-14T08:31:49;14.98;;;8.82;;
69912;SDS011;57198;52.082;5.108;2024-02-14T08:34:16;10.25;;;9.18;;
69912;SDS011;57198;52.082;5.108;2024-02-14T08:36:44;8.50;;;7.63;;
69912;SDS011;57198;52.082;5.108;2024-02-14T08:39:11;9.80;;;6.90;;
69912;SDS011;57198;52.082;5.108;2024-02-14T08:41:39;8.23;;;7.40;;
69912;SDS011;57198;52.082;5.108;2024-02-14T08:44:07;11.77;;;8.13;;
69912;SDS011;57198;52.082;5.108;2024-02-14T08:46:34;10.15;;;7.90;;
69912;SDS011;57198;52.082;5.108;2024-02-14T08:49:02;17.25;;;9.32;;
69912;SDS011;57198;52.082;5.108;2024-02-14T08:51:37;10.70;;;8.30;;
69912;SDS011;57198;52.082;5.108;2024-02-14T08:54:05;14.30;;;10.43;;
69912;SDS011;57198;52.082;5.108;2024-02-14T08:56:33;12.00;;;9.45;;
69912;SDS011;57198;52.082;5.108;2024-02-14T08:59:01;12.27;;;10.93;;
69912;SDS011;57198;52.082;5.108;2024-02-14T09:01:29;14.07;;;10.90;;
69912;SDS011;57198;52.082;5.108;2024-02-14T09:03:57;22.00;;;10.30;;
69912;SDS011;57198;52.082;5.108;2024-02-14T09:06:25;10.13;;;8.45;;
69912;SDS011;57198;52.082;5.108;2024-02-14T09:08:53;11.10;;;10.00;;
69912;SDS011;57198;52.082;5.108;2024-02-14T09:11:21;13.25;;;9.90;;
69912;SDS011;57198;52.082;5.108;2024-02-14T09:13:49;12.90;;;9.63;;
69912;SDS011;57198;52.082;5.108;2024-02-14T09:16:20;12.87;;;8.70;;
69912;SDS011;57198;52.082;5.108;2024-02-14T09:18:49;12.38;;;9.50;;
69912;SDS011;57198;52.082;5.108;2024-02-14T09:21:16;13.27;;;9.43;;
69912;SDS011;57198;52.082;5.108;2024-02-14T09:23:47;10.65;;;9.13;;
69912;SDS011;57198;52.082;5.108;2024-02-14T09:26:14;12.85;;;10.77;;
69912;SDS011;57198;52.082;5.108;2024-02-14T09:28:44;12.33;;;9.77;;
69912;SDS011;57198;52.082;5.108;2024-02-14T09:31:11;14.30;;;10.00;;
69912;SDS011;57198;52.082;5.108;2024-02-14T09:33:39;12.05;;;10.57;;
69912;SDS011;57198;52.082;5.108;2024-02-14T09:36:07;12.80;;;10.85;;
69912;SDS011;57198;52.082;5.108;2024-02-14T09:38:35;12.52;;;11.23;;
69912;SDS011;57198;52.082;5.108;2024-02-14T09:41:06;13.47;;;10.13;;
69912;SDS011;57198;52.082;5.108;2024-02-14T09:43:40;11.23;;;9.63;;
69912;SDS011;57198;52.082;5.108;2024-02-14T09:46:13;17.58;;;11.02;;
69912;SDS011;57198;52.082;5.108;2024-02-14T09:48:44;14.57;;;10.32;;
69912;SDS011;57198;52.082;5.108;2024-02-14T09:51:13;11.32;;;10.13;;
69912;SDS011;57198;52.082;5.108;2024-02-14T09:53:40;14.10;;;11.17;;
69912;SDS011;57198;52.082;5.108;2024-02-14T09:56:09;13.82;;;11.15;;
69912;SDS011;57198;52.082;5.108;2024-02-14T09:58:37;12.25;;;10.43;;
69912;SDS011;57198;52.082;5.108;2024-02-14T10:01:04;11.65;;;9.63;;
69912;SDS011;57198;52.082;5.108;2024-02-14T10:03:33;15.20;;;10.32;;
69912;SDS011;57198;52.082;5.108;2024-02-14T10:06:02;11.10;;;8.77;;
69912;SDS011;57198;52.082;5.108;2024-02-14T10:08:31;11.18;;;9.35;;
69912;SDS011;57198;52.082;5.108;2024-02-14T10:10:58;10.55;;;9.48;;
69912;SDS011;57198;52.082;5.108;2024-02-14T10:13:26;12.75;;;8.52;;
69912;SDS011;57198;52.082;5.108;2024-02-14T10:15:56;12.90;;;9.85;;
69912;SDS011;57198;52.082;5.108;2024-02-14T10:18:24;10.73;;;7.63;;
69912;SDS011;57198;52.082;5.108;2024-02-14T10:20:54;8.50;;;7.68;;
69912;SDS011;57198;52.082;5.108;2024-02-14T10:23:21;9.32;;;6.90;;
69912;SDS011;57198;52.082;5.108;2024-02-14T10:25:50;10.00;;;8.82;;
69912;SDS011;57198;52.082;5.108;2024-02-14T10:28:18;11.18;;;9.77;;
69912;SDS011;57198;52.082;5.108;2024-02-14T10:30:50;12.40;;;8.20;;
69912;SDS011;57198;52.082;5.108;2024-02-14T10:33:17;9.02;;;8.15;;
69912;SDS011;57198;52.082;5.108;2024-02-14T10:35:54;9.57;;;8.55;;
69912;SDS011;57198;52.082;5.108;2024-02-14T10:38:26;10.27;;;8.25;;
69912;SDS011;57198;52.082;5.108;2024-02-14T10:40:54;10.07;;;8.35;;
69912;SDS011;57198;52.082;5.108;2024-02-14T10:43:22;11.17;;;8.37;;
69912;SDS011;57198;52.082;5.108;2024-02-14T10:45:51;11.50;;;8.50;;
69912;SDS011;57198;52.082;5.108;2024-02-14T10:48:19;10.75;;;7.95;;
69912;SDS011;57198;52.082;5.108;2024-02-14T10:50:53;9.25;;;7.47;;
69912;SDS011;57198;52.082;5.108;2024-02-14T10:53:21;8.73;;;7.53;;
69912;SDS011;57198;52.082;5.108;2024-02-14T10:55:50;8.17;;;7.03;;
69912;SDS011;57198;52.082;5.108;2024-02-14T10:58:18;7.68;;;6.82;;
69912;SDS011;57198;52.082;5.108;2024-02-14T11:00:46;9.10;;;7.40;;
69912;SDS011;57198;52.082;5.108;2024-02-14T11:03:14;7.82;;;7.07;;
69912;SDS011;57198;52.082;5.108;2024-02-14T11:05:43;8.65;;;7.78;;
69912;SDS011;57198;52.082;5.108;2024-02-14T11:08:15;7.53;;;6.47;;
69912;SDS011;57198;52.082;5.108;2024-02-14T11:10:54;9.05;;;6.30;;
69912;SDS011;57198;52.082;5.108;2024-02-14T11:13:26;8.85;;;6.47;;
69912;SDS011;57198;52.082;5.108;2024-02-14T11:16:00;9.05;;;7.57;;
69912;SDS011;57198;52.082;5.108;2024-02-14T11:18:28;9.35;;;7.10;;
69912;SDS011;57198;52.082;5.108;2024-02-14T11:20:57;7.73;;;6.87;;
69912;SDS011;57198;52.082;5.108;2024-02-14T11:23:25;7.75;;;6.97;;
69912;SDS011;57198;52.082;5.108;2024-02-14T11:26:03;9.75;;;7.65;;
69912;SDS011;57198;52.082;5.108;2024-02-14T11:28:31;10.35;;;7.65;;
69912;SDS011;57198;52.082;5.108;2024-02-14T11:31:03;8.80;;;6.70;;
69912;SDS011;57198;52.082;5.108;2024-02-14T11:33:31;8.07;;;5.80;;
69912;SDS011;57198;52.082;5.108;2024-02-14T11:36:00;6.85;;;5.85;;
69912;SDS011;57198;52.082;5.108;2024-02-14T11:38:37;8.68;;;6.80;;
69912;SDS011;57198;52.082;5.108;2024-02-14T11:41:04;7.45;;;6.30;;
69912;SDS011;57198;52.082;5.108;2024-02-14T11:43:32;6.28;;;5.68;;
69912;SDS011;57198;52.082;5.108;2024-02-14T11:46:00;8.70;;;7.17;;
69912;SDS011;57198;52.082;5.108;2024-02-14T11:48:31;7.18;;;6.47;;
69912;SDS011;57198;52.082;5.108;2024-02-14T11:50:59;9.18;;;7.70;;
69912;SDS011;57198;52.082;5.108;2024-02-14T11:53:26;8.40;;;7.18;;
69912;SDS011;57198;52.082;5.108;2024-02-14T11:55:55;9.98;;;7.90;;
69912;SDS011;57198;52.082;5.108;2024-02-14T11:58:23;10.37;;;8.27;;
69912;SDS011;57198;52.082;5.108;2024-02-14T12:00:51;8.15;;;7.35;;
69912;SDS011;57198;52.082;5.108;2024-02-14T12:03:20;7.82;;;7.05;;
69912;SDS011;57198;52.082;5.108;2024-02-14T12:05:49;9.23;;;7.80;;
69912;SDS011;57198;52.082;5.108;2024-02-14T12:08:18;9.45;;;7.80;;
69912;SDS011;57198;52.082;5.108;2024-02-14T12:10:46;9.67;;;7.40;;
69912;SDS011;57198;52.082;5.108;2024-02-14T12:13:17;8.90;;;8.02;;
69912;SDS011;57198;52.082;5.108;2024-02-14T12:15:45;7.40;;;6.68;;
69912;SDS011;57198;52.082;5.108;2024-02-14T12:18:13;7.45;;;6.68;;
69912;SDS011;57198;52.082;5.108;2024-02-14T12:20:41;6.95;;;6.43;;
69912;SDS011;57198;52.082;5.108;2024-02-14T12:23:16;7.30;;;6.60;;
69912;SDS011;57198;52.082;5.108;2024-02-14T12:25:44;7.97;;;7.18;;
69912;SDS011;57198;52.082;5.108;2024-02-14T12:28:22;9.00;;;8.20;;
69912;SDS011;57198;52.082;5.108;2024-02-14T12:30:50;8.32;;;7.53;;
69912;SDS011;57198;52.082;5.108;2024-02-14T12:33:24;9.10;;;7.70;;
69912;SDS011;57198;52.082;5.108;2024-02-14T12:35:53;7.63;;;6.93;;
69912;SDS011;57198;52.082;5.108;2024-02-14T12:38:21;8.05;;;7.05;;
69912;SDS011;57198;52.082;5.108;2024-02-14T12:40:52;7.43;;;6.72;;
69912;SDS011;57198;52.082;5.108;2024-02-14T12:43:20;7.55;;;6.82;;
69912;SDS011;57198;52.082;5.108;2024-02-14T12:45:48;7.53;;;6.85;;
69912;SDS011;57198;52.082;5.108;2024-02-14T12:48:21;7.20;;;6.50;;
69912;SDS011;57198;52.082;5.108;2024-02-14T12:50:50;6.00;;;5.40;;
69912;SDS011;57198;52.082;5.108;2024-02-14T12:53:19;6.55;;;5.90;;
69912;SDS011;57198;52.082;5.108;2024-02-14T12:55:47;6.43;;;5.60;;
69912;SDS011;57198;52.082;5.108;2024-02-14T12:58:14;7.35;;;6.65;;
69912;SDS011;57198;52.082;5.108;2024-02-14T13:00:42;7.60;;;6.90;;
69912;SDS011;57198;52.082;5.108;2024-02-14T13:03:11;7.47;;;6.10;;
69912;SDS011;57198;52.082;5.108;2024-02-14T13:05:43;7.97;;;7.20;;
69912;SDS011;57198;52.082;5.108;2024-02-14T13:08:11;6.70;;;6.10;;
69912;SDS011;57198;52.082;5.108;2024-02-14T13:10:39;5.97;;;5.47;;
69912;SDS011;57198;52.082;5.108;2024-02-14T13:13:06;6.30;;;5.70;;
69912;SDS011;57198;52.082;5.108;2024-02-14T13:15:33;5.95;;;5.45;;
69912;SDS011;57198;52.082;5.108;2024-02-14T13:18:01;5.75;;;5.25;;
69912;SDS011;57198;52.082;5.108;2024-02-14T13:20:29;6.68;;;6.18;;
69912;SDS011;57198;52.082;5.108;2024-02-14T13:22:57;5.60;;;5.10;;
69912;SDS011;57198;52.082;5.108;2024-02-14T13:25:25;6.30;;;5.80;;
69912;SDS011;57198;52.082;5.108;2024-02-14T13:27:52;5.38;;;4.97;;
69912;SDS011;57198;52.082;5.108;2024-02-14T13:30:21;5.63;;;4.80;;
69912;SDS011;57198;52.082;5.108;2024-02-14T13:32:49;6.20;;;5.70;;
69912;SDS011;57198;52.082;5.108;2024-02-14T13:35:17;7.25;;;6.55;;
69912;SDS011;57198;52.082;5.108;2024-02-14T13:37:44;6.80;;;6.20;;
69912;SDS011;57198;52.082;5.108;2024-02-14T13:40:11;6.95;;;5.82;;
69912;SDS011;57198;52.082;5.108;2024-02-14T13:42:39;5.55;;;5.15;;
69912;SDS011;57198;52.082;5.108;2024-02-14T13:45:07;6.03;;;5.50;;
69912;SDS011;57198;52.082;5.108;2024-02-14T13:47:38;6.05;;;5.55;;
69912;SDS011;57198;52.082;5.108;2024-02-14T13:50:07;5.73;;;5.27;;
69912;SDS011;57198;52.082;5.108;2024-02-14T13:52:35;5.22;;;4.82;;
69912;SDS011;57198;52.082;5.108;2024-02-14T13:55:03;6.25;;;5.70;;
69912;SDS011;57198;52.082;5.108;2024-02-14T13:57:33;6.10;;;5.40;;
69912;SDS011;57198;52.082;5.108;2024-02-14T14:00:01;6.40;;;5.80;;
69912;SDS011;57198;52.082;5.108;2024-02-14T14:02:37;6.73;;;6.13;;
69912;SDS011;57198;52.082;5.108;2024-02-14T14:05:08;6.80;;;6.15;;
69912;SDS011;57198;52.082;5.108;2024-02-14T14:07:35;6.55;;;5.95;;
69912;SDS011;57198;52.082;5.108;2024-02-14T14:10:19;6.82;;;5.57;;
69912;SDS011;57198;52.082;5.108;2024-02-14T14:12:47;7.20;;;6.25;;
69912;SDS011;57198;52.082;5.108;2024-02-14T14:15:15;6.40;;;5.90;;
69912;SDS011;57198;52.082;5.108;2024-02-14T14:17:42;6.18;;;5.68;;
69912;SDS011;57198;52.082;5.108;2024-02-14T14:20:10;6.70;;;5.78;;
69912;SDS011;57198;52.082;5.108;2024-02-14T14:22:38;6.60;;;5.53;;
69912;SDS011;57198;52.082;5.108;2024-02-14T14:25:05;5.07;;;4.63;;
69912;SDS011;57198;52.082;5.108;2024-02-14T14:27:35;4.97;;;4.27;;
69912;SDS011;57198;52.082;5.108;2024-02-14T14:30:02;4.60;;;4.15;;
69912;SDS011;57198;52.082;5.108;2024-02-14T14:32:30;5.38;;;4.88;;
69912;SDS011;57198;52.082;5.108;2024-02-14T14:34:58;3.80;;;3.50;;
69912;SDS011;57198;52.082;5.108;2024-02-14T14:37:26;4.95;;;4.45;;
69912;SDS011;57198;52.082;5.108;2024-02-14T14:39:53;3.37;;;3.07;;
69912;SDS011;57198;52.082;5.108;2024-02-14T14:42:22;4.10;;;3.80;;
69912;SDS011;57198;52.082;5.108;2024-02-14T14:44:49;5.20;;;4.28;;